Terminal Aerodrome Forecast
Issued by NWS

Home | Current Version | Previous Version | Text Only | Print | Product List | Glossary On
Versions: 1 2 3 4 5 6 7 8 9 10 11 12 13
000
FTUS46 KSTO 271700
TAFSAC
TAF
KSAC 271735Z 2718/2818 15006KT P6SM SCT060
     FM272300 22012KT P6SM VCSH BKN050
      TEMPO 2802/2806 -SHRA SCT040 OVC080
     FM281100 VRB05KT P6SM BKN050=

USA.gov is the U.S. government's official web portal to all federal, state and local government web resources and services.